createdAt,value
2017-11-17T00:02:21.993Z,18.93
2017-11-17T00:04:48.666Z,18.07
2017-11-17T00:07:15.414Z,16.93
2017-11-17T00:09:42.143Z,18.10
2017-11-17T00:12:08.854Z,18.77
2017-11-17T00:14:35.557Z,18.40
2017-11-17T00:17:02.251Z,18.37
2017-11-17T00:19:28.980Z,18.37
2017-11-17T00:21:55.671Z,19.23
2017-11-17T00:24:22.377Z,18.90
2017-11-17T00:26:49.160Z,17.60
2017-11-17T00:29:15.841Z,17.83
2017-11-17T00:31:42.533Z,18.17
2017-11-17T00:34:09.216Z,18.73
2017-11-17T00:36:35.927Z,20.77
2017-11-17T00:39:02.612Z,17.77
2017-11-17T00:41:29.307Z,18.03
2017-11-17T00:43:56.012Z,18.50
2017-11-17T00:46:22.729Z,17.77
2017-11-17T00:48:49.403Z,17.50
2017-11-17T00:51:16.073Z,19.00
2017-11-17T00:53:42.851Z,18.93
2017-11-17T00:56:09.528Z,17.80
2017-11-17T00:58:36.244Z,18.70
2017-11-17T01:01:02.930Z,17.90
2017-11-17T01:03:29.615Z,18.37
2017-11-17T01:05:56.314Z,18.57
2017-11-17T01:08:22.997Z,19.33
2017-11-17T01:10:49.660Z,18.93
2017-11-17T01:13:16.371Z,18.00
2017-11-17T01:15:43.050Z,17.93
2017-11-17T01:18:09.749Z,19.60
2017-11-17T01:20:36.411Z,17.60
2017-11-17T01:23:03.132Z,19.93
2017-11-17T01:25:29.803Z,19.63
2017-11-17T01:27:56.496Z,20.47
2017-11-17T01:30:23.196Z,18.13
2017-11-17T01:32:49.892Z,18.20
2017-11-17T01:35:16.606Z,18.53
2017-11-17T01:37:43.286Z,19.87
2017-11-17T01:40:09.978Z,20.10
2017-11-17T01:42:36.649Z,19.47
2017-11-17T01:45:03.378Z,20.60
2017-11-17T01:47:30.074Z,18.90
2017-11-17T01:49:56.754Z,19.07
2017-11-17T01:52:23.447Z,20.60
2017-11-17T01:54:50.135Z,20.07
2017-11-17T01:57:16.822Z,20.07
2017-11-17T01:59:43.615Z,20.80
2017-11-17T02:02:16.200Z,20.30
2017-11-17T02:04:43.068Z,20.67
2017-11-17T02:07:09.797Z,21.47
2017-11-17T02:09:36.494Z,19.70
2017-11-17T02:12:03.160Z,20.33
2017-11-17T02:14:29.862Z,21.00
2017-11-17T02:16:56.529Z,19.07
2017-11-17T02:19:23.683Z,19.70
2017-11-17T02:21:50.379Z,19.17
2017-11-17T02:24:17.073Z,19.37
2017-11-17T02:26:43.772Z,21.00
2017-11-17T02:29:10.980Z,20.07
2017-11-17T02:31:38.440Z,21.87
2017-11-17T02:34:05.104Z,21.70
2017-11-17T02:36:32.329Z,21.27
2017-11-17T02:38:59.032Z,21.30
2017-11-17T02:41:25.696Z,21.97
2017-11-17T02:43:52.401Z,21.37
2017-11-17T02:46:19.080Z,20.97
2017-11-17T02:48:45.761Z,22.27
2017-11-17T02:51:12.446Z,20.87
2017-11-17T02:53:39.129Z,20.27
2017-11-17T02:56:05.840Z,21.90
2017-11-17T02:58:32.529Z,19.57
2017-11-17T03:00:59.248Z,21.10
2017-11-17T03:03:25.925Z,21.93
2017-11-17T03:05:53.407Z,21.53
2017-11-17T03:08:20.108Z,21.87
2017-11-17T03:10:46.787Z,21.03
2017-11-17T03:13:14.360Z,20.57
2017-11-17T03:15:41.169Z,22.63
2017-11-17T03:18:07.836Z,22.57
2017-11-17T03:20:34.541Z,22.63
2017-11-17T03:23:01.215Z,24.07
2017-11-17T03:25:27.929Z,22.87
2017-11-17T03:27:54.609Z,21.90
2017-11-17T03:30:21.320Z,24.07
2017-11-17T03:32:48.043Z,23.40
2017-11-17T03:35:14.714Z,24.67
2017-11-17T03:37:41.420Z,21.87
2017-11-17T03:40:08.076Z,23.93
2017-11-17T03:42:34.807Z,23.53
2017-11-17T03:45:01.496Z,21.50
2017-11-17T03:47:28.189Z,24.00
2017-11-17T03:49:54.880Z,22.10
2017-11-17T03:52:21.557Z,25.13
2017-11-17T03:54:48.260Z,22.63
2017-11-17T03:57:15.001Z,24.27
2017-11-17T03:59:41.708Z,24.17
2017-11-17T04:02:08.404Z,23.80
2017-11-17T04:04:35.090Z,22.80
2017-11-17T04:07:01.797Z,23.37
2017-11-17T04:09:28.483Z,23.97
2017-11-17T04:11:55.203Z,24.00
2017-11-17T04:14:21.879Z,25.40
2017-11-17T04:16:48.603Z,26.57
2017-11-17T04:19:15.276Z,26.30
2017-11-17T04:21:41.964Z,25.63
2017-11-17T04:24:08.651Z,25.80
2017-11-17T04:26:35.406Z,24.60
2017-11-17T04:29:02.105Z,25.07
2017-11-17T04:31:28.789Z,25.83
2017-11-17T04:33:55.484Z,26.17
2017-11-17T04:36:22.198Z,24.53
2017-11-17T04:38:48.883Z,24.50
2017-11-17T04:41:15.597Z,25.40
2017-11-17T04:43:42.284Z,24.93
2017-11-17T04:46:08.970Z,26.13
2017-11-17T04:48:35.665Z,26.83
2017-11-17T04:51:02.350Z,24.20
2017-11-17T04:53:29.077Z,25.53
2017-11-17T04:55:55.855Z,26.27
2017-11-17T04:58:22.567Z,25.37
2017-11-17T05:00:49.509Z,25.87
2017-11-17T05:03:16.346Z,25.77
2017-11-17T05:05:43.082Z,27.13
2017-11-17T05:08:09.765Z,24.57
2017-11-17T05:10:36.456Z,27.40
2017-11-17T05:13:03.124Z,26.47
2017-11-17T05:15:29.822Z,25.47
2017-11-17T05:17:56.530Z,24.50
2017-11-17T05:20:23.212Z,27.67
2017-11-17T05:22:49.943Z,26.17
2017-11-17T05:25:16.607Z,24.03
2017-11-17T05:27:43.311Z,25.07
2017-11-17T05:30:09.989Z,27.10
2017-11-17T05:32:36.703Z,26.73
2017-11-17T05:35:03.519Z,26.67
2017-11-17T05:37:30.258Z,27.90
2017-11-17T05:39:56.949Z,26.47
2017-11-17T05:42:23.750Z,27.10
2017-11-17T05:44:50.440Z,25.70
2017-11-17T05:47:17.118Z,27.23
2017-11-17T05:49:43.885Z,26.10
2017-11-17T05:52:10.582Z,26.40
2017-11-17T05:54:37.983Z,25.70
2017-11-17T05:57:04.658Z,26.30
2017-11-17T05:59:31.378Z,24.93
2017-11-17T06:01:58.042Z,25.57
2017-11-17T06:04:24.703Z,26.40
2017-11-17T06:06:51.402Z,25.20
2017-11-17T06:09:18.117Z,25.33
2017-11-17T06:11:44.826Z,24.77
2017-11-17T06:14:11.526Z,25.43
2017-11-17T06:16:38.220Z,24.20
2017-11-17T06:19:04.905Z,24.40
2017-11-17T06:21:31.608Z,26.10
2017-11-17T06:23:58.312Z,24.80
2017-11-17T06:26:25.047Z,25.57
2017-11-17T06:28:51.714Z,24.87
2017-11-17T06:31:18.471Z,25.20
2017-11-17T06:33:45.293Z,24.73
2017-11-17T06:36:11.964Z,24.77
2017-11-17T06:38:38.722Z,24.17
2017-11-17T06:41:05.389Z,24.70
2017-11-17T06:43:32.118Z,23.93
2017-11-17T06:45:58.811Z,23.53
2017-11-17T06:48:25.506Z,24.53
2017-11-17T06:50:52.241Z,25.47
2017-11-17T06:53:18.911Z,23.07
2017-11-17T06:55:45.826Z,23.73
2017-11-17T06:58:13.393Z,23.87
2017-11-17T07:00:40.061Z,24.57
2017-11-17T07:03:06.839Z,23.60
2017-11-17T07:05:33.523Z,23.90
2017-11-17T07:08:00.216Z,24.23
2017-11-17T07:10:26.878Z,23.43
2017-11-17T07:12:53.716Z,25.07
2017-11-17T07:15:20.423Z,25.70
2017-11-17T07:17:47.099Z,28.03
2017-11-17T07:20:13.807Z,25.73
2017-11-17T07:22:40.497Z,24.97
2017-11-17T07:25:07.202Z,25.63
2017-11-17T07:27:33.871Z,25.97
2017-11-17T07:30:00.550Z,25.33
2017-11-17T07:32:27.258Z,25.27
2017-11-17T07:34:53.953Z,29.60
2017-11-17T07:37:20.670Z,30.00
2017-11-17T07:39:47.349Z,29.17
2017-11-17T07:42:14.951Z,27.93
2017-11-17T07:44:41.650Z,26.77
2017-11-17T07:47:08.359Z,26.00
2017-11-17T07:49:35.057Z,27.47
2017-11-17T07:52:01.736Z,25.03
2017-11-17T07:54:28.425Z,28.60
2017-11-17T07:56:55.125Z,25.00
2017-11-17T07:59:21.806Z,26.07
2017-11-17T08:01:48.465Z,26.20
2017-11-17T08:04:15.152Z,26.07
2017-11-17T08:06:41.853Z,27.97
2017-11-17T08:09:08.545Z,26.63
2017-11-17T08:11:35.368Z,28.47
2017-11-17T08:14:02.103Z,25.83
2017-11-17T08:16:28.787Z,27.17
2017-11-17T08:18:55.483Z,27.20
2017-11-17T08:21:22.223Z,28.90
2017-11-17T08:23:48.912Z,27.13
2017-11-17T08:26:15.627Z,26.83
2017-11-17T08:28:42.305Z,26.00
2017-11-17T08:31:08.985Z,27.80
2017-11-17T08:33:35.669Z,28.00
2017-11-17T08:36:02.365Z,25.43
2017-11-17T08:38:29.058Z,28.70
2017-11-17T08:40:55.764Z,27.17
2017-11-17T08:43:22.602Z,25.53
2017-11-17T08:45:49.322Z,27.90
2017-11-17T08:48:16.006Z,26.60
2017-11-17T08:50:42.775Z,27.60
2017-11-17T08:53:09.466Z,26.43
2017-11-17T08:55:36.160Z,26.33
2017-11-17T08:58:02.850Z,24.47
2017-11-17T09:00:29.525Z,27.00
2017-11-17T09:02:56.240Z,26.40
2017-11-17T09:05:22.937Z,25.80
2017-11-17T09:07:49.624Z,26.27
2017-11-17T09:10:16.472Z,28.13
2017-11-17T09:12:43.154Z,26.50
2017-11-17T09:15:09.865Z,27.30
2017-11-17T09:17:36.535Z,24.97
2017-11-17T09:20:03.230Z,26.00
2017-11-17T09:22:29.964Z,26.40
2017-11-17T09:24:56.754Z,23.57
2017-11-17T09:27:23.439Z,27.83
2017-11-17T09:29:50.144Z,24.97
2017-11-17T09:32:16.835Z,23.83
2017-11-17T09:34:43.531Z,25.20
2017-11-17T09:37:10.256Z,24.17
2017-11-17T09:39:36.942Z,23.97
2017-11-17T09:42:03.650Z,24.70
2017-11-17T09:44:30.446Z,24.40
2017-11-17T09:46:57.192Z,23.73
2017-11-17T09:49:24.042Z,23.33
2017-11-17T09:51:50.754Z,21.40
2017-11-17T09:54:17.509Z,23.03
2017-11-17T09:56:44.200Z,24.17
2017-11-17T09:59:10.890Z,22.17
2017-11-17T10:01:37.566Z,27.03
2017-11-17T10:04:04.299Z,23.20
2017-11-17T10:06:31.015Z,23.73
2017-11-17T10:08:57.696Z,22.63
2017-11-17T10:11:24.458Z,22.10
2017-11-17T10:13:51.186Z,20.83
2017-11-17T10:16:17.951Z,21.63
2017-11-17T10:18:44.668Z,23.30
2017-11-17T10:21:11.347Z,21.77
2017-11-17T10:23:38.098Z,22.90
2017-11-17T10:26:04.865Z,21.90
2017-11-17T10:28:31.570Z,21.60
2017-11-17T10:30:58.234Z,21.23
2017-11-17T10:33:24.913Z,24.00
2017-11-17T10:35:51.621Z,22.60
2017-11-17T10:38:18.303Z,22.57
2017-11-17T10:40:45.008Z,21.83
2017-11-17T10:43:11.679Z,21.97
2017-11-17T10:45:38.362Z,21.70
2017-11-17T10:48:05.063Z,23.67
2017-11-17T10:50:31.745Z,22.60
2017-11-17T10:52:58.494Z,21.93
2017-11-17T10:55:25.386Z,23.07
2017-11-17T10:57:52.086Z,22.10
2017-11-17T11:00:21.728Z,21.67
2017-11-17T11:02:48.470Z,23.10
2017-11-17T11:05:15.279Z,22.33
2017-11-17T11:07:42.054Z,22.23
2017-11-17T11:10:08.818Z,23.43
2017-11-17T11:12:35.532Z,23.93
2017-11-17T11:15:02.219Z,24.40
2017-11-17T11:17:29.002Z,24.07
2017-11-17T11:19:55.712Z,23.80
2017-11-17T11:22:22.433Z,26.17
2017-11-17T11:24:49.128Z,26.10
2017-11-17T11:27:15.824Z,23.57
2017-11-17T11:29:42.566Z,24.20
2017-11-17T11:32:09.245Z,23.30
2017-11-17T11:34:35.920Z,23.33
2017-11-17T11:37:02.618Z,23.07
2017-11-17T11:39:29.958Z,22.47
2017-11-17T11:41:56.734Z,22.50
2017-11-17T11:44:23.403Z,22.77
2017-11-17T11:46:50.104Z,22.50
2017-11-17T11:49:16.823Z,22.80
2017-11-17T11:51:44.421Z,22.80
2017-11-17T11:54:11.186Z,20.47
2017-11-17T11:56:37.875Z,23.67
2017-11-17T11:59:04.628Z,21.20
2017-11-17T12:01:31.309Z,22.13
2017-11-17T12:03:57.983Z,23.30
2017-11-17T12:06:24.750Z,22.23
2017-11-17T12:08:51.441Z,21.83
2017-11-17T12:11:18.236Z,22.10
2017-11-17T12:13:44.940Z,23.03
2017-11-17T12:16:11.722Z,23.23
2017-11-17T12:18:38.427Z,22.17
2017-11-17T12:21:05.120Z,22.13
2017-11-17T12:23:31.793Z,23.30
2017-11-17T12:25:58.498Z,23.17
2017-11-17T12:28:25.873Z,22.53
2017-11-17T12:30:52.698Z,23.33
2017-11-17T12:33:19.415Z,23.30
2017-11-17T12:35:46.344Z,22.00
2017-11-17T12:38:13.076Z,22.57
2017-11-17T12:40:39.769Z,23.50
2017-11-17T12:43:06.462Z,21.93
2017-11-17T12:45:33.125Z,22.87
2017-11-17T12:47:59.834Z,25.20
2017-11-17T12:50:26.523Z,24.07
2017-11-17T12:52:53.290Z,22.53
2017-11-17T12:55:19.973Z,24.93
2017-11-17T12:57:46.770Z,21.83
2017-11-17T13:00:13.447Z,24.90
2017-11-17T13:02:40.121Z,22.87
2017-11-17T13:05:06.901Z,24.13
2017-11-17T13:07:33.590Z,24.53
2017-11-17T13:10:00.298Z,23.57
2017-11-17T13:12:27.041Z,23.83
2017-11-17T13:14:53.856Z,25.07
2017-11-17T13:17:20.552Z,25.10
2017-11-17T13:19:47.237Z,24.80
2017-11-17T13:22:13.934Z,25.17
2017-11-17T13:24:40.613Z,22.77
2017-11-17T13:27:07.312Z,23.03
2017-11-17T13:29:33.970Z,24.13
2017-11-17T13:32:00.836Z,25.73
2017-11-17T13:34:27.522Z,24.77
2017-11-17T13:36:54.334Z,24.57
2017-11-17T13:39:21.131Z,24.10
2017-11-17T13:41:47.840Z,24.40
2017-11-17T13:44:14.518Z,22.67
2017-11-17T13:46:41.377Z,23.73
2017-11-17T13:49:08.049Z,25.20
2017-11-17T13:51:34.754Z,21.67
2017-11-17T13:54:01.463Z,22.50
2017-11-17T13:56:28.154Z,21.27
2017-11-17T13:58:54.904Z,20.00
2017-11-17T14:01:21.581Z,22.23
2017-11-17T14:03:48.295Z,21.17
2017-11-17T14:06:14.999Z,19.90
2017-11-17T14:08:41.689Z,22.20
2017-11-17T14:11:08.444Z,21.43
2017-11-17T14:13:35.227Z,19.90
2017-11-17T14:16:02.006Z,20.93
2017-11-17T14:18:28.669Z,21.13
2017-11-17T14:20:55.379Z,20.50
2017-11-17T14:23:22.048Z,21.60
2017-11-17T14:25:48.727Z,20.97
2017-11-17T14:28:15.435Z,22.70
2017-11-17T14:30:42.119Z,21.67
2017-11-17T14:33:08.950Z,23.30
2017-11-17T14:35:35.662Z,21.97
2017-11-17T14:38:02.518Z,22.93
2017-11-17T14:40:29.309Z,22.97
2017-11-17T14:42:55.972Z,22.60
2017-11-17T14:45:22.653Z,23.87
2017-11-17T14:47:49.525Z,23.57
2017-11-17T14:50:16.193Z,22.33
2017-11-17T14:52:42.980Z,22.07
2017-11-17T14:55:09.681Z,24.47
2017-11-17T14:57:36.375Z,24.43
2017-11-17T15:00:03.135Z,22.77
2017-11-17T15:02:29.945Z,22.97
2017-11-17T15:04:56.687Z,25.63
2017-11-17T15:07:23.441Z,25.67
2017-11-17T15:09:50.133Z,24.10
2017-11-17T15:12:16.804Z,23.00
2017-11-17T15:14:43.492Z,24.60
2017-11-17T15:17:10.190Z,25.60
2017-11-17T15:19:36.869Z,24.97
2017-11-17T15:22:03.582Z,23.50
2017-11-17T15:24:30.244Z,23.70
2017-11-17T15:26:56.958Z,23.80
2017-11-17T15:29:23.648Z,22.90
2017-11-17T15:31:50.385Z,23.83
2017-11-17T15:34:17.086Z,23.40
2017-11-17T15:36:43.762Z,21.20
2017-11-17T15:39:10.593Z,27.17
2017-11-17T15:41:37.267Z,29.07
2017-11-17T15:44:03.980Z,22.37
2017-11-17T15:46:30.653Z,22.27
2017-11-17T15:48:57.334Z,21.73
2017-11-17T15:51:24.066Z,20.83
2017-11-17T15:53:50.743Z,21.60
2017-11-17T15:56:17.419Z,22.90
2017-11-17T15:58:44.089Z,22.40
2017-11-17T16:01:10.772Z,21.87
2017-11-17T16:03:37.460Z,20.63
2017-11-17T16:06:04.138Z,21.97
2017-11-17T16:08:30.861Z,20.37
2017-11-17T16:10:57.550Z,20.60
2017-11-17T16:13:24.260Z,21.40
2017-11-17T16:15:50.946Z,21.30
2017-11-17T16:18:17.631Z,20.93
2017-11-17T16:20:44.385Z,22.50
2017-11-17T16:23:11.096Z,22.17
2017-11-17T16:25:37.819Z,23.40
2017-11-17T16:28:04.531Z,21.23
2017-11-17T16:30:31.224Z,23.10
2017-11-17T16:32:57.926Z,20.53
2017-11-17T16:35:24.594Z,21.50
2017-11-17T16:37:51.356Z,20.70
2017-11-17T16:40:18.016Z,20.23
2017-11-17T16:42:44.702Z,20.37
2017-11-17T16:45:11.385Z,19.07
2017-11-17T16:47:38.135Z,20.10
2017-11-17T16:50:04.897Z,19.40
2017-11-17T16:52:31.579Z,20.97
2017-11-17T16:54:58.369Z,20.83
2017-11-17T16:57:25.049Z,22.40
2017-11-17T16:59:51.767Z,22.13
2017-11-17T17:02:18.446Z,22.30
2017-11-17T17:04:45.653Z,22.30
2017-11-17T17:07:12.986Z,24.33
2017-11-17T17:09:39.720Z,23.80
2017-11-17T17:12:06.397Z,26.90
2017-11-17T17:14:33.114Z,25.33
2017-11-17T17:16:59.791Z,25.30
2017-11-17T17:19:26.457Z,26.40
2017-11-17T17:21:53.172Z,26.00
2017-11-17T17:24:19.849Z,25.53
2017-11-17T17:26:46.544Z,26.40
2017-11-17T17:29:13.404Z,27.50
2017-11-17T17:31:40.100Z,26.30
2017-11-17T17:34:06.903Z,25.40
2017-11-17T17:36:34.438Z,24.50
2017-11-17T17:39:01.147Z,26.00
2017-11-17T17:41:27.825Z,25.63
2017-11-17T17:43:54.533Z,24.50
2017-11-17T17:46:21.356Z,26.20
2017-11-17T17:48:48.048Z,26.83
2017-11-17T17:51:14.868Z,24.73
2017-11-17T17:53:41.552Z,23.80
2017-11-17T17:56:08.295Z,22.90
2017-11-17T17:58:34.986Z,25.70
2017-11-17T18:01:01.671Z,24.40
2017-11-17T18:03:28.405Z,23.20
2017-11-17T18:05:55.076Z,24.80
2017-11-17T18:08:21.765Z,22.90
2017-11-17T18:10:48.453Z,26.10
2017-11-17T18:13:15.127Z,26.30
2017-11-17T18:15:41.831Z,24.20
2017-11-17T18:18:08.521Z,24.93
2017-11-17T18:20:35.357Z,25.33
2017-11-17T18:23:02.092Z,23.70
2017-11-17T18:25:28.971Z,23.30
2017-11-17T18:27:55.617Z,21.37
2017-11-17T18:30:22.307Z,23.07
2017-11-17T18:32:49.010Z,22.43
2017-11-17T18:35:15.683Z,23.53
2017-11-17T18:37:42.407Z,24.60
2017-11-17T18:40:09.081Z,25.27
2017-11-17T18:42:35.821Z,23.30
2017-11-17T18:45:02.529Z,23.73
2017-11-17T18:47:29.275Z,24.60
2017-11-17T18:49:55.968Z,24.50
2017-11-17T18:52:22.700Z,24.10
2017-11-17T18:54:49.423Z,24.90
2017-11-17T18:57:16.165Z,20.90
2017-11-17T18:59:42.898Z,26.30
2017-11-17T19:02:09.558Z,24.93
2017-11-17T19:04:36.256Z,24.40
2017-11-17T19:07:02.961Z,26.43
2017-11-17T19:09:29.658Z,25.40
2017-11-17T19:11:56.341Z,24.50
2017-11-17T19:14:23.134Z,27.87
2017-11-17T19:16:49.855Z,25.50
2017-11-17T19:19:16.542Z,28.93
2017-11-17T19:21:43.219Z,27.63
2017-11-17T19:24:09.929Z,26.07
2017-11-17T19:26:36.615Z,27.23
2017-11-17T19:29:03.335Z,27.73
2017-11-17T19:31:30.010Z,26.10
2017-11-17T19:33:56.786Z,26.73
2017-11-17T19:36:23.468Z,27.40
2017-11-17T19:38:50.263Z,28.57
2017-11-17T19:41:16.960Z,27.17
2017-11-17T19:43:43.657Z,28.37
2017-11-17T19:46:10.392Z,27.40
2017-11-17T19:48:37.086Z,27.80
2017-11-17T19:51:03.896Z,28.07
2017-11-17T19:53:30.587Z,26.93
2017-11-17T19:55:57.405Z,26.10
2017-11-17T19:58:24.134Z,28.53
2017-11-17T20:00:50.820Z,27.07
2017-11-17T20:03:17.524Z,27.30
2017-11-17T20:05:44.235Z,27.93
2017-11-17T20:08:10.937Z,26.20
2017-11-17T20:10:37.662Z,28.13
2017-11-17T20:13:04.359Z,27.83
2017-11-17T20:15:31.079Z,28.40
2017-11-17T20:17:57.745Z,28.60
2017-11-17T20:20:24.457Z,28.20
2017-11-17T20:22:51.182Z,28.30
2017-11-17T20:25:17.892Z,27.40
2017-11-17T20:27:44.579Z,28.43
2017-11-17T20:30:11.276Z,27.10
2017-11-17T20:32:38.040Z,27.97
2017-11-17T20:35:04.835Z,27.50
2017-11-17T20:37:31.540Z,26.40
2017-11-17T20:39:58.244Z,26.97
2017-11-17T20:42:24.927Z,26.63
2017-11-17T20:44:51.631Z,27.40
2017-11-17T20:47:18.311Z,25.57
2017-11-17T20:49:45.054Z,25.53
2017-11-17T20:52:11.745Z,26.20
2017-11-17T20:54:38.442Z,27.07
2017-11-17T20:57:05.947Z,27.43
2017-11-17T20:59:32.633Z,31.17
2017-11-17T21:01:59.349Z,29.70
2017-11-17T21:04:26.066Z,28.57
2017-11-17T21:06:52.765Z,26.90
2017-11-17T21:09:19.475Z,28.73
2017-11-17T21:11:46.218Z,26.80
2017-11-17T21:14:12.904Z,26.63
2017-11-17T21:16:39.592Z,28.20
2017-11-17T21:19:06.316Z,27.47
2017-11-17T21:21:33.648Z,27.60
2017-11-17T21:24:00.357Z,27.53
2017-11-17T21:26:27.044Z,25.83
2017-11-17T21:28:53.736Z,27.60
2017-11-17T21:31:20.449Z,27.00
2017-11-17T21:33:47.134Z,26.40
2017-11-17T21:36:13.840Z,27.37
2017-11-17T21:38:40.507Z,29.20
2017-11-17T21:41:07.691Z,25.83
2017-11-17T21:43:34.401Z,27.63
2017-11-17T21:46:01.080Z,26.47
2017-11-17T21:48:27.911Z,27.63
2017-11-17T21:50:54.597Z,27.00
2017-11-17T21:53:21.305Z,26.20
2017-11-17T21:55:47.988Z,27.00
2017-11-17T21:58:14.663Z,27.30
2017-11-17T22:00:41.363Z,27.00
2017-11-17T22:03:08.040Z,27.87
2017-11-17T22:05:34.745Z,28.13
2017-11-17T22:08:01.433Z,25.13
2017-11-17T22:10:28.277Z,26.30
2017-11-17T22:12:55.728Z,25.77
2017-11-17T22:15:22.424Z,25.77
2017-11-17T22:17:49.134Z,25.20
2017-11-17T22:20:15.851Z,26.43
2017-11-17T22:22:42.521Z,27.00
2017-11-17T22:25:09.221Z,27.03
2017-11-17T22:27:35.908Z,24.80
2017-11-17T22:30:02.627Z,25.70
2017-11-17T22:32:29.314Z,27.03
2017-11-17T22:34:56.047Z,26.13
2017-11-17T22:37:22.783Z,27.70
2017-11-17T22:39:49.481Z,26.60
2017-11-17T22:42:16.186Z,26.83
2017-11-17T22:44:42.888Z,26.07
2017-11-17T22:47:09.585Z,27.30
2017-11-17T22:49:36.252Z,27.30
2017-11-17T22:52:02.958Z,27.30
2017-11-17T22:54:29.636Z,27.30
2017-11-17T22:56:56.476Z,30.47
2017-11-17T22:59:23.168Z,26.30
2017-11-17T23:01:49.862Z,28.10
2017-11-17T23:04:16.547Z,27.47
2017-11-17T23:06:43.267Z,26.20
2017-11-17T23:09:09.974Z,25.93
2017-11-17T23:11:36.641Z,27.63
2017-11-17T23:14:03.352Z,25.27
2017-11-17T23:16:30.054Z,27.53
2017-11-17T23:18:56.750Z,24.83
2017-11-17T23:21:23.442Z,27.20
2017-11-17T23:23:50.141Z,24.40
2017-11-17T23:26:16.836Z,25.80
2017-11-17T23:28:43.523Z,25.73
2017-11-17T23:31:10.206Z,26.77
2017-11-17T23:33:36.901Z,25.67
2017-11-17T23:36:04.106Z,26.57
2017-11-17T23:38:30.844Z,24.73
2017-11-17T23:40:57.527Z,25.50
2017-11-17T23:43:24.206Z,25.50
2017-11-17T23:45:51.108Z,24.80
2017-11-17T23:48:17.778Z,25.73
2017-11-17T23:50:44.486Z,24.97
2017-11-17T23:53:11.170Z,25.03
2017-11-17T23:55:37.850Z,25.30
2017-11-17T23:58:04.590Z,26.57
